Terminal Aerodrome Forecast
Issued by NWS

Home | Current Version | Previous Version | Text Only | Print | Product List | Glossary On
Versions: 1 2 3 4 5 6 7 8 9 10 11 12 13 14 15 16 17 18 19 20 21 22 23 24 25 26 27 28 29 30 31 32 33 34 35 36 37 38 39
000
FTAK31 PAFA 071328 AAA
TAFAOM
TAF AMD
PAOM 071328Z 0713/0812 13009KT 5SM FU VCSH BKN004 BKN028 OVC045
     FM071600 13012KT 3SM -RA BR SCT015 BKN025 OVC040
     FM080400 15013KT P6SM BKN020 OVC040=

USA.gov is the U.S. government's official web portal to all federal, state and local government web resources and services.